Terminal Aerodrome Forecast
Issued by NWS Binghamton, NY

Home | Current Version | Previous Version | Text Only | Print | Product List | Glossary On
Versions: 1 2 3 4 5 6 7 8 9 10 11 12 13 14 15 16 17 18 19 20 21 22 23 24 25 26 27 28 29 30 31 32 33
000
FTUS41 KBGM 060903 AAB
TAFBGM
TAF AMD
KBGM 060903Z 0609/0706 01007KT P6SM OVC040
     FM061400 02008KT P6SM -SHRA OVC025
     FM061800 03009KT 5SM -SHRA OVC012
     FM062200 04007KT 5SM -SHRA OVC020
     FM070400 07004KT P6SM -SHRA OVC012=

USA.gov is the U.S. government's official web portal to all federal, state and local government web resources and services.